createdAt,value
2023-05-01T00:00:25.240Z,3.70
2023-05-01T00:02:52.868Z,3.70
2023-05-01T00:05:19.668Z,3.70
2023-05-01T00:07:46.278Z,3.69
2023-05-01T00:10:12.986Z,3.67
2023-05-01T00:12:39.899Z,3.64
2023-05-01T00:15:07.564Z,3.64
2023-05-01T00:17:34.200Z,3.65
2023-05-01T00:20:00.922Z,3.65
2023-05-01T00:22:27.636Z,3.67
2023-05-01T00:24:54.252Z,3.69
2023-05-01T00:27:20.857Z,3.71
2023-05-01T00:29:47.711Z,3.74
2023-05-01T00:32:15.441Z,3.77
2023-05-01T00:34:42.402Z,3.81
2023-05-01T00:37:09.367Z,3.86
2023-05-01T00:39:35.966Z,3.92
2023-05-01T00:42:02.869Z,3.98
2023-05-01T00:44:29.469Z,4.04
2023-05-01T00:46:58.281Z,4.10
2023-05-01T00:49:24.981Z,4.16
2023-05-01T00:51:53.290Z,4.20
2023-05-01T00:54:21.053Z,4.26
2023-05-01T00:56:48.098Z,4.33
2023-05-01T00:59:14.849Z,4.39
2023-05-01T01:01:42.073Z,4.44
2023-05-01T01:04:08.906Z,4.48
2023-05-01T01:06:45.340Z,4.50
2023-05-01T01:09:22.462Z,4.52
2023-05-01T01:11:51.853Z,4.55
2023-05-01T01:14:26.860Z,4.55
2023-05-01T01:17:03.677Z,4.59
2023-05-01T01:20:06.605Z,4.61
2023-05-01T01:22:33.496Z,4.63
2023-05-01T01:25:37.894Z,4.67
2023-05-01T01:28:25.375Z,4.73
2023-05-01T01:31:01.879Z,4.76
2023-05-01T01:33:49.515Z,4.79
2023-05-01T01:36:23.354Z,4.82
2023-05-01T01:39:14.844Z,4.85
2023-05-01T01:41:41.547Z,4.88
2023-05-01T01:44:17.604Z,4.90
2023-05-01T01:46:44.273Z,4.89
2023-05-01T01:49:15.066Z,4.90
2023-05-01T01:51:41.736Z,4.94
2023-05-01T01:54:08.433Z,4.99
2023-05-01T01:56:35.117Z,5.03
2023-05-01T01:59:01.857Z,5.09
2023-05-01T02:01:29.061Z,5.13
2023-05-01T02:03:55.870Z,5.19
2023-05-01T02:06:22.917Z,5.24
2023-05-01T02:08:49.610Z,5.28
2023-05-01T02:11:16.966Z,5.34
2023-05-01T02:13:43.949Z,5.39
2023-05-01T02:16:10.911Z,5.44
2023-05-01T02:18:37.701Z,5.49
2023-05-01T02:21:04.380Z,5.53
2023-05-01T02:23:35.662Z,5.56
2023-05-01T02:26:03.104Z,5.60
2023-05-01T02:28:30.052Z,5.63
2023-05-01T02:30:57.483Z,5.66
2023-05-01T02:33:24.119Z,5.68
2023-05-01T02:35:50.797Z,5.70
2023-05-01T02:38:17.728Z,5.70
2023-05-01T02:40:46.983Z,5.71
2023-05-01T02:43:14.237Z,5.73
2023-05-01T02:45:41.667Z,5.76
2023-05-01T02:48:08.508Z,5.78
2023-05-01T02:50:36.361Z,5.82
2023-05-01T02:53:03.242Z,5.85
2023-05-01T02:55:38.194Z,5.89
2023-05-01T02:58:04.893Z,5.93
2023-05-01T03:00:31.673Z,5.97
2023-05-01T03:02:58.440Z,6.01
2023-05-01T03:05:25.259Z,6.03
2023-05-01T03:07:51.886Z,6.07
2023-05-01T03:10:18.654Z,6.10
2023-05-01T03:12:45.435Z,6.13
2023-05-01T03:15:13.395Z,6.16
2023-05-01T03:17:40.174Z,6.21
2023-05-01T03:20:09.652Z,6.26
2023-05-01T03:22:36.830Z,6.32
2023-05-01T03:25:04.416Z,6.38
2023-05-01T03:27:32.087Z,6.43
2023-05-01T03:29:58.868Z,6.48
2023-05-01T03:32:26.195Z,6.52
2023-05-01T03:34:53.405Z,6.56
2023-05-01T03:37:20.916Z,6.61
2023-05-01T03:39:47.808Z,6.66
2023-05-01T03:42:33.225Z,6.70
2023-05-01T03:45:05.689Z,6.75
2023-05-01T03:47:32.865Z,6.80
2023-05-01T03:49:59.560Z,6.89
2023-05-01T03:52:26.574Z,7.24
2023-05-01T03:54:53.569Z,7.70
2023-05-01T03:57:23.500Z,8.03
2023-05-01T03:59:50.354Z,8.39
2023-05-01T04:02:17.531Z,9.00
2023-05-01T04:04:45.177Z,9.65
2023-05-01T04:07:12.427Z,10.36
2023-05-01T04:09:39.289Z,11.13
2023-05-01T04:12:06.408Z,11.87
2023-05-01T04:14:33.120Z,12.58
2023-05-01T04:17:00.011Z,13.21
2023-05-01T04:19:27.993Z,13.83
2023-05-01T04:21:57.584Z,14.40
2023-05-01T04:24:25.281Z,14.96
2023-05-01T04:26:51.931Z,15.50
2023-05-01T04:29:18.914Z,16.00
2023-05-01T04:31:45.602Z,16.40
2023-05-01T04:34:12.508Z,16.81
2023-05-01T04:36:39.697Z,17.24
2023-05-01T04:39:06.582Z,17.72
2023-05-01T04:41:33.412Z,18.20
2023-05-01T04:44:00.216Z,18.66
2023-05-01T04:46:26.933Z,19.08
2023-05-01T04:48:53.721Z,19.43
2023-05-01T04:51:21.191Z,19.80
2023-05-01T04:53:48.331Z,20.18
2023-05-01T04:56:20.088Z,20.56
2023-05-01T04:58:47.211Z,20.97
2023-05-01T05:01:16.496Z,21.35
2023-05-01T05:03:45.471Z,21.69
2023-05-01T05:06:14.414Z,21.99
2023-05-01T05:08:41.372Z,22.24
2023-05-01T05:11:09.922Z,22.38
2023-05-01T05:13:59.697Z,22.61
2023-05-01T05:16:26.535Z,22.88
2023-05-01T05:18:56.199Z,23.12
2023-05-01T05:21:22.917Z,23.26
2023-05-01T05:23:54.413Z,23.46
2023-05-01T05:26:21.831Z,23.74
2023-05-01T05:28:50.282Z,23.90
2023-05-01T05:31:17.587Z,24.07
2023-05-01T05:33:44.844Z,24.05
2023-05-01T05:36:12.938Z,24.27
2023-05-01T05:38:41.187Z,24.54
2023-05-01T05:41:08.961Z,24.74
2023-05-01T05:43:36.324Z,24.81
2023-05-01T05:46:04.476Z,24.84
2023-05-01T05:48:33.034Z,24.93
2023-05-01T05:51:00.365Z,25.11
2023-05-01T05:53:27.181Z,25.21
2023-05-01T05:55:54.520Z,25.36
2023-05-01T05:58:21.438Z,25.57
2023-05-01T06:00:53.263Z,25.71
2023-05-01T06:03:20.258Z,25.88
2023-05-01T06:05:47.273Z,25.98
2023-05-01T06:08:14.482Z,25.90
2023-05-01T06:10:43.369Z,25.11
2023-05-01T06:13:13.903Z,24.95
2023-05-01T06:15:44.001Z,24.97
2023-05-01T06:18:11.822Z,24.89
2023-05-01T06:20:39.003Z,25.03
2023-05-01T06:23:05.904Z,25.02
2023-05-01T06:25:40.656Z,24.90
2023-05-01T06:28:07.321Z,24.72
2023-05-01T06:30:34.410Z,24.46
2023-05-01T06:33:01.339Z,24.24
2023-05-01T06:35:28.414Z,23.94
2023-05-01T06:37:56.163Z,23.55
2023-05-01T06:40:22.961Z,22.83
2023-05-01T06:42:49.760Z,22.12
2023-05-01T06:45:16.447Z,21.80
2023-05-01T06:47:43.510Z,21.76
2023-05-01T06:50:11.064Z,21.64
2023-05-01T06:52:37.841Z,21.54
2023-05-01T06:55:06.794Z,21.46
2023-05-01T06:57:33.570Z,21.35
2023-05-01T07:00:00.890Z,20.76
2023-05-01T07:02:27.571Z,20.27
2023-05-01T07:04:54.409Z,20.23
2023-05-01T07:07:21.021Z,20.09
2023-05-01T07:09:47.684Z,19.92
2023-05-01T07:12:14.387Z,19.81
2023-05-01T07:14:41.711Z,19.78
2023-05-01T07:17:09.684Z,19.76
2023-05-01T07:19:36.399Z,19.79
2023-05-01T07:22:04.827Z,19.90
2023-05-01T07:24:31.661Z,19.81
2023-05-01T07:26:58.464Z,19.66
2023-05-01T07:29:25.338Z,19.78
2023-05-01T07:31:52.080Z,19.61
2023-05-01T07:34:19.761Z,19.43
2023-05-01T07:36:46.835Z,19.45
2023-05-01T07:39:14.814Z,19.25
2023-05-01T07:41:41.706Z,19.24
2023-05-01T07:44:08.301Z,19.23
2023-05-01T07:46:36.202Z,19.24
2023-05-01T07:50:57.271Z,19.10
2023-05-01T07:53:24.027Z,19.22
2023-05-01T07:55:50.941Z,19.38
2023-05-01T07:58:17.944Z,19.49
2023-05-01T08:00:45.514Z,19.45
2023-05-01T08:03:13.108Z,19.45
2023-05-01T08:05:41.729Z,19.44
2023-05-01T08:08:09.430Z,19.34
2023-05-01T08:10:36.422Z,19.12
2023-05-01T08:13:03.215Z,19.06
2023-05-01T08:15:30.167Z,18.75
2023-05-01T08:17:57.430Z,18.45
2023-05-01T08:20:24.758Z,18.20
2023-05-01T08:22:51.619Z,17.87
2023-05-01T08:25:18.348Z,17.61
2023-05-01T08:27:45.001Z,17.68
2023-05-01T08:30:11.999Z,17.84
2023-05-01T08:32:38.686Z,18.05
2023-05-01T08:35:05.821Z,18.27
2023-05-01T08:37:32.487Z,18.45
2023-05-01T08:39:59.225Z,18.62
2023-05-01T08:42:26.462Z,18.64
2023-05-01T08:44:54.575Z,18.46
2023-05-01T08:47:21.297Z,18.44
2023-05-01T08:49:48.122Z,18.49
2023-05-01T08:52:15.522Z,18.62
2023-05-01T08:54:43.251Z,18.78
2023-05-01T08:57:11.419Z,18.92
2023-05-01T08:59:38.852Z,19.06
2023-05-01T09:02:07.405Z,19.22
2023-05-01T09:04:37.179Z,19.28
2023-05-01T09:07:03.885Z,19.33
2023-05-01T09:09:31.148Z,19.40
2023-05-01T09:12:03.494Z,19.37
2023-05-01T09:14:30.921Z,19.25
2023-05-01T09:16:57.598Z,19.23
2023-05-01T09:19:25.425Z,19.25
2023-05-01T09:21:53.702Z,19.15
2023-05-01T09:24:20.769Z,18.96
2023-05-01T09:26:47.889Z,18.91
2023-05-01T09:29:25.668Z,18.84
2023-05-01T09:31:52.387Z,18.76
2023-05-01T09:34:20.707Z,18.65
2023-05-01T09:36:48.081Z,18.76
2023-05-01T09:39:15.186Z,18.77
2023-05-01T09:41:52.479Z,18.76
2023-05-01T09:44:19.484Z,18.86
2023-05-01T09:46:46.115Z,19.00
2023-05-01T09:49:13.138Z,19.09
2023-05-01T09:51:39.870Z,19.09
2023-05-01T09:54:06.735Z,19.05
2023-05-01T09:56:34.262Z,19.11
2023-05-01T09:59:17.553Z,19.24
2023-05-01T10:01:46.533Z,19.35
2023-05-01T10:04:13.486Z,19.21
2023-05-01T10:06:40.444Z,19.05
2023-05-01T10:09:16.683Z,18.82
2023-05-01T10:11:54.559Z,18.42
2023-05-01T10:14:23.986Z,18.36
2023-05-01T10:16:53.104Z,18.51
2023-05-01T10:19:20.104Z,18.63
2023-05-01T10:21:46.823Z,18.73
2023-05-01T10:24:15.285Z,18.86
2023-05-01T10:26:43.656Z,18.96
2023-05-01T10:29:10.858Z,18.85
2023-05-01T10:31:38.206Z,18.53
2023-05-01T10:34:06.432Z,18.20
2023-05-01T10:36:47.611Z,18.07
2023-05-01T10:39:40.986Z,18.11
2023-05-01T10:42:11.453Z,18.27
2023-05-01T10:44:38.653Z,18.45
2023-05-01T10:47:31.573Z,18.65
2023-05-01T10:50:05.213Z,18.79
2023-05-01T10:52:56.996Z,18.89
2023-05-01T10:55:36.793Z,18.92
2023-05-01T10:58:04.036Z,18.83
2023-05-01T11:00:31.485Z,18.62
2023-05-01T11:03:24.435Z,18.59
2023-05-01T11:06:00.334Z,18.52
2023-05-01T11:08:34.417Z,18.43
2023-05-01T11:11:19.665Z,18.33
2023-05-01T11:14:02.080Z,18.32
2023-05-01T11:16:38.381Z,18.40
2023-05-01T11:19:09.681Z,18.43
2023-05-01T11:21:37.306Z,18.44
2023-05-01T11:24:04.691Z,18.46
2023-05-01T11:26:32.496Z,18.39
2023-05-01T11:29:01.645Z,18.46
2023-05-01T11:31:29.369Z,18.61
2023-05-01T11:33:57.318Z,18.75
2023-05-01T11:36:24.235Z,18.80
2023-05-01T11:38:56.503Z,18.82
2023-05-01T11:41:23.854Z,18.89
2023-05-01T11:43:54.037Z,18.91
2023-05-01T11:46:28.201Z,18.95
2023-05-01T11:48:59.281Z,18.89
2023-05-01T11:51:26.810Z,18.82
2023-05-01T11:54:00.791Z,18.86
2023-05-01T11:56:27.719Z,18.93
2023-05-01T11:58:58.809Z,19.00
2023-05-01T12:01:39.300Z,19.03
2023-05-01T12:04:08.221Z,19.10
2023-05-01T12:06:44.594Z,19.18
2023-05-01T12:09:17.499Z,19.20
2023-05-01T12:11:44.244Z,19.23
2023-05-01T12:14:10.913Z,19.22
2023-05-01T12:16:37.942Z,19.18
2023-05-01T12:19:04.669Z,19.14
2023-05-01T12:21:32.005Z,19.09
2023-05-01T12:24:11.474Z,19.03
2023-05-01T12:26:38.169Z,18.86
2023-05-01T12:29:05.860Z,18.50
2023-05-01T12:31:32.955Z,18.23
2023-05-01T12:34:04.539Z,18.11
2023-05-01T12:36:33.227Z,17.98
2023-05-01T12:39:12.503Z,17.99
2023-05-01T12:41:39.199Z,18.04
2023-05-01T12:44:25.482Z,18.10
2023-05-01T12:46:59.081Z,18.19
2023-05-01T12:49:26.074Z,18.25
2023-05-01T12:51:54.429Z,18.28
2023-05-01T12:54:28.609Z,18.33
2023-05-01T12:57:12.205Z,18.37
2023-05-01T12:59:39.346Z,18.40
2023-05-01T13:02:07.481Z,18.39
2023-05-01T13:04:35.170Z,18.32
2023-05-01T13:07:02.104Z,18.28
2023-05-01T13:09:30.966Z,18.24
2023-05-01T13:12:02.428Z,18.13
2023-05-01T13:14:30.660Z,18.01
2023-05-01T13:16:57.306Z,17.99
2023-05-01T13:19:28.916Z,17.97
2023-05-01T13:21:56.954Z,17.82
2023-05-01T13:24:39.731Z,17.60
2023-05-01T13:27:08.677Z,17.45
2023-05-01T13:29:35.514Z,17.32
2023-05-01T13:32:06.366Z,17.35
2023-05-01T13:34:33.974Z,17.44
2023-05-01T13:37:01.570Z,17.50
2023-05-01T13:39:28.231Z,17.47
2023-05-01T13:41:54.937Z,17.36
2023-05-01T13:44:21.912Z,17.30
2023-05-01T13:46:48.722Z,17.26
2023-05-01T13:49:15.578Z,17.25
2023-05-01T13:51:42.997Z,17.27
2023-05-01T13:54:10.243Z,17.32
2023-05-01T13:56:37.766Z,17.34
2023-05-01T13:59:08.023Z,17.32
2023-05-01T14:01:46.782Z,17.31
2023-05-01T14:04:18.258Z,17.21
2023-05-01T14:06:45.717Z,17.15
2023-05-01T14:09:12.651Z,17.03
2023-05-01T14:11:49.040Z,16.98
2023-05-01T14:14:16.368Z,16.99
2023-05-01T14:16:47.341Z,17.02
2023-05-01T14:19:16.214Z,17.01
2023-05-01T14:21:42.925Z,17.00
2023-05-01T14:24:09.765Z,17.02
2023-05-01T14:26:42.363Z,17.04
2023-05-01T14:29:15.566Z,17.04
2023-05-01T14:31:43.140Z,16.98
2023-05-01T14:34:09.957Z,16.92
2023-05-01T14:36:37.342Z,16.86
2023-05-01T14:39:04.639Z,16.72
2023-05-01T14:41:31.656Z,16.64
2023-05-01T14:43:58.306Z,16.57
2023-05-01T14:46:29.768Z,16.53
2023-05-01T14:48:57.142Z,16.50
2023-05-01T14:51:23.774Z,16.43
2023-05-01T14:53:50.724Z,16.41
2023-05-01T14:56:17.577Z,16.39
2023-05-01T14:58:44.326Z,16.37
2023-05-01T15:01:11.084Z,16.42
2023-05-01T15:03:41.044Z,16.48
2023-05-01T15:06:08.865Z,16.53
2023-05-01T15:08:35.957Z,16.49
2023-05-01T15:11:02.578Z,16.44
2023-05-01T15:13:29.176Z,16.44
2023-05-01T15:15:56.189Z,16.43
2023-05-01T15:18:23.181Z,16.36
2023-05-01T15:20:49.817Z,16.30
2023-05-01T15:23:16.718Z,16.23
2023-05-01T15:25:44.572Z,16.14
2023-05-01T15:28:13.096Z,16.12
2023-05-01T15:30:39.740Z,16.12
2023-05-01T15:33:06.491Z,16.09
2023-05-01T15:35:33.444Z,16.03
2023-05-01T15:38:00.093Z,15.99
2023-05-01T15:40:26.722Z,15.97
2023-05-01T15:42:53.673Z,15.96
2023-05-01T15:45:20.678Z,15.96
2023-05-01T15:47:47.411Z,15.87
2023-05-01T15:50:14.479Z,15.81
2023-05-01T15:52:41.298Z,15.76
2023-05-01T15:55:08.511Z,15.70
2023-05-01T15:57:35.869Z,15.66
2023-05-01T16:00:03.347Z,15.62
2023-05-01T16:02:32.815Z,15.55
2023-05-01T16:05:00.177Z,15.47
2023-05-01T16:07:29.009Z,15.43
2023-05-01T16:09:56.706Z,15.39
2023-05-01T16:12:23.530Z,15.34
2023-05-01T16:14:50.218Z,15.25
2023-05-01T16:17:18.313Z,15.14
2023-05-01T16:19:45.217Z,15.08
2023-05-01T16:22:11.922Z,15.03
2023-05-01T16:24:38.561Z,15.02
2023-05-01T16:27:05.337Z,15.03
2023-05-01T16:29:35.014Z,15.01
2023-05-01T16:32:04.052Z,14.99
2023-05-01T16:34:30.917Z,14.97
2023-05-01T16:36:58.276Z,14.92
2023-05-01T16:39:24.945Z,14.85
2023-05-01T16:41:52.704Z,14.78
2023-05-01T16:44:20.425Z,14.73
2023-05-01T16:46:57.901Z,14.68
2023-05-01T16:49:27.173Z,14.60
2023-05-01T16:51:57.043Z,14.53
2023-05-01T16:54:25.197Z,14.46
2023-05-01T16:56:51.847Z,14.36
2023-05-01T16:59:18.746Z,14.26
2023-05-01T17:01:46.044Z,14.16
2023-05-01T17:04:15.020Z,14.05
2023-05-01T17:06:41.814Z,13.95
2023-05-01T17:09:08.987Z,13.87
2023-05-01T17:11:35.776Z,13.76
2023-05-01T17:14:03.582Z,13.66
2023-05-01T17:16:30.387Z,13.52
2023-05-01T17:18:57.189Z,13.37
2023-05-01T17:21:25.185Z,13.21
2023-05-01T17:23:51.862Z,13.04
2023-05-01T17:26:18.567Z,12.88
2023-05-01T17:28:45.316Z,12.72
2023-05-01T17:31:12.034Z,12.56
2023-05-01T17:33:38.946Z,12.40
2023-05-01T17:36:05.825Z,12.25
2023-05-01T17:38:32.505Z,12.10
2023-05-01T17:40:59.110Z,11.96
2023-05-01T17:43:26.783Z,11.78
2023-05-01T17:45:53.467Z,11.60
2023-05-01T17:48:20.193Z,11.45
2023-05-01T17:50:47.476Z,11.31
2023-05-01T17:53:14.636Z,11.17
2023-05-01T17:55:41.714Z,11.03
2023-05-01T17:58:08.484Z,10.88
2023-05-01T18:00:35.809Z,10.74
2023-05-01T18:03:02.519Z,10.62
2023-05-01T18:05:29.357Z,10.49
2023-05-01T18:07:56.123Z,10.38
2023-05-01T18:10:22.799Z,10.27
2023-05-01T18:12:49.903Z,10.16
2023-05-01T18:15:22.214Z,10.04
2023-05-01T18:17:50.040Z,9.92
2023-05-01T18:20:16.814Z,9.81
2023-05-01T18:22:43.463Z,9.69
2023-05-01T18:25:10.145Z,9.57
2023-05-01T18:27:41.656Z,9.45
2023-05-01T18:30:09.387Z,9.34
2023-05-01T18:32:46.972Z,9.23
2023-05-01T18:35:19.095Z,9.12
2023-05-01T18:37:46.583Z,9.01
2023-05-01T18:40:13.610Z,8.91
2023-05-01T18:42:41.635Z,8.81
2023-05-01T18:45:09.958Z,8.72
2023-05-01T18:47:36.598Z,8.63
2023-05-01T18:50:03.789Z,8.54
2023-05-01T18:52:30.996Z,8.45
2023-05-01T18:54:57.672Z,8.36
2023-05-01T18:57:24.353Z,8.27
2023-05-01T18:59:50.958Z,8.19
2023-05-01T19:02:17.560Z,8.11
2023-05-01T19:04:56.898Z,8.03
2023-05-01T19:07:25.873Z,7.95
2023-05-01T19:09:52.558Z,7.85
2023-05-01T19:12:19.432Z,7.76
2023-05-01T19:14:46.205Z,7.69
2023-05-01T19:17:13.025Z,7.59
2023-05-01T19:19:39.813Z,7.50
2023-05-01T19:22:07.349Z,7.42
2023-05-01T19:24:34.017Z,7.35
2023-05-01T19:27:01.652Z,7.28
2023-05-01T19:29:28.304Z,7.21
2023-05-01T19:31:55.415Z,7.14
2023-05-01T19:34:22.204Z,7.07
2023-05-01T19:36:48.803Z,6.99
2023-05-01T19:39:15.681Z,6.93
2023-05-01T19:41:42.316Z,6.85
2023-05-01T19:44:09.017Z,6.77
2023-05-01T19:46:35.900Z,6.69
2023-05-01T19:49:02.669Z,6.61
2023-05-01T19:51:29.300Z,6.54
2023-05-01T19:53:57.028Z,6.48
2023-05-01T19:56:24.706Z,6.43
2023-05-01T19:58:53.809Z,6.37
2023-05-01T20:01:20.523Z,6.31
2023-05-01T20:03:47.399Z,6.24
2023-05-01T20:08:48.397Z,6.10
2023-05-01T20:11:17.541Z,6.01
2023-05-01T20:13:45.512Z,5.94
2023-05-01T20:16:12.352Z,5.88
2023-05-01T20:18:39.154Z,5.82
2023-05-01T20:21:07.409Z,5.78
2023-05-01T20:23:34.575Z,5.73
2023-05-01T20:26:01.393Z,5.68
2023-05-01T20:28:28.628Z,5.63
2023-05-01T20:30:55.448Z,5.56
2023-05-01T20:33:22.327Z,5.50
2023-05-01T20:35:49.014Z,5.44
2023-05-01T20:38:15.683Z,5.40
2023-05-01T20:40:42.614Z,5.36
2023-05-01T20:43:09.368Z,5.31
2023-05-01T20:45:36.109Z,5.26
2023-05-01T20:48:02.979Z,5.21
2023-05-01T20:50:29.826Z,5.13
2023-05-01T20:52:56.500Z,5.06
2023-05-01T20:55:23.731Z,5.01
2023-05-01T20:57:50.626Z,4.95
2023-05-01T21:00:17.357Z,4.91
2023-05-01T21:02:44.584Z,4.87
2023-05-01T21:05:11.461Z,4.82
2023-05-01T21:07:41.109Z,4.78
2023-05-01T21:10:11.194Z,4.73
2023-05-01T21:12:37.873Z,4.68
2023-05-01T21:15:05.098Z,4.64
2023-05-01T21:17:35.381Z,4.60
2023-05-01T21:20:02.275Z,4.55
2023-05-01T21:22:29.528Z,4.50
2023-05-01T21:24:57.424Z,4.45
2023-05-01T21:27:25.070Z,4.41
2023-05-01T21:29:54.969Z,4.37
2023-05-01T21:32:25.099Z,4.32
2023-05-01T21:34:53.196Z,4.28
2023-05-01T21:37:20.002Z,4.24
2023-05-01T21:39:46.638Z,4.21
2023-05-01T21:42:13.753Z,4.19
2023-05-01T21:44:41.143Z,4.17
2023-05-01T21:47:07.836Z,4.15
2023-05-01T21:49:34.620Z,4.12
2023-05-01T21:52:01.486Z,4.08
2023-05-01T21:54:28.245Z,4.05
2023-05-01T21:56:59.611Z,4.01
2023-05-01T21:59:37.894Z,3.96
2023-05-01T22:02:08.934Z,3.91
2023-05-01T22:04:35.959Z,3.88
2023-05-01T22:07:02.806Z,3.85
2023-05-01T22:09:29.463Z,3.83
2023-05-01T22:11:58.804Z,3.80
2023-05-01T22:14:33.646Z,3.75
2023-05-01T22:17:10.808Z,3.71
2023-05-01T22:19:37.958Z,3.69
2023-05-01T22:22:04.588Z,3.65
2023-05-01T22:24:31.642Z,3.62
2023-05-01T22:26:58.325Z,3.60
2023-05-01T22:29:25.138Z,3.58
2023-05-01T22:31:51.801Z,3.56
2023-05-01T22:34:18.652Z,3.52
2023-05-01T22:36:45.310Z,3.47
2023-05-01T22:39:12.271Z,3.44
2023-05-01T22:41:38.891Z,3.41
2023-05-01T22:44:06.464Z,3.38
2023-05-01T22:46:33.385Z,3.36
2023-05-01T22:49:03.243Z,3.34
2023-05-01T22:51:30.359Z,3.29
2023-05-01T22:53:57.003Z,3.24
2023-05-01T22:56:26.098Z,3.22
2023-05-01T22:58:52.733Z,3.18
2023-05-01T23:01:19.567Z,3.16
2023-05-01T23:03:46.651Z,3.13
2023-05-01T23:06:13.553Z,3.11
2023-05-01T23:08:40.399Z,3.08
2023-05-01T23:11:07.193Z,3.06
2023-05-01T23:13:33.888Z,3.03
2023-05-01T23:16:00.592Z,3.00
2023-05-01T23:18:31.044Z,2.97
2023-05-01T23:20:58.021Z,2.92
2023-05-01T23:23:29.059Z,2.88
2023-05-01T23:25:55.741Z,2.85
2023-05-01T23:28:23.804Z,2.83
2023-05-01T23:30:59.569Z,2.82
2023-05-01T23:33:28.273Z,2.78
2023-05-01T23:35:54.998Z,2.75
2023-05-01T23:38:21.637Z,2.73
2023-05-01T23:40:49.793Z,2.71
2023-05-01T23:43:16.889Z,2.68
2023-05-01T23:45:43.965Z,2.65
2023-05-01T23:48:10.686Z,2.62
2023-05-01T23:50:37.489Z,2.59
2023-05-01T23:53:07.869Z,2.58
2023-05-01T23:55:35.427Z,2.57
2023-05-01T23:58:02.346Z,2.55
